createdAt,value
2018-04-23T00:00:05.938Z,99602.66
2018-04-23T00:03:07.458Z,99603.80
2018-04-23T00:06:08.956Z,99595.46
2018-04-23T00:09:10.581Z,99593.85
2018-04-23T00:12:12.166Z,99599.09
2018-04-23T00:15:15.210Z,99587.84
2018-04-23T00:18:17.334Z,99581.69
2018-04-23T00:21:18.812Z,99591.84
2018-04-23T00:24:20.298Z,99581.94
2018-04-23T00:27:22.616Z,99612.27
2018-04-23T00:30:24.129Z,99644.86
2018-04-23T00:47:59.204Z,99739.12
2018-04-23T00:51:02.926Z,99743.84
2018-04-23T00:54:05.276Z,99732.10
2018-04-23T01:03:40.600Z,99695.41
2018-04-23T01:06:45.836Z,99669.66
2018-04-23T01:09:48.161Z,99661.33
2018-04-23T01:12:49.765Z,99651.63
2018-04-23T01:15:51.349Z,99650.34
2018-04-23T01:18:53.047Z,99649.14
2018-04-23T01:21:54.820Z,99650.78
2018-04-23T01:24:58.789Z,99627.73
2018-04-23T01:28:01.825Z,99649.30
2018-04-23T01:31:03.428Z,99653.69
2018-04-23T01:34:05.049Z,99653.30
2018-04-23T01:37:06.536Z,99652.25
2018-04-23T01:40:08.924Z,99645.20
2018-04-23T01:43:10.408Z,99656.02
2018-04-23T01:46:11.979Z,99671.48
2018-04-23T01:49:13.481Z,99656.89
2018-04-23T01:52:15.645Z,99663.42
2018-04-23T01:55:17.140Z,99656.07
2018-04-23T01:58:31.885Z,99655.63
2018-04-23T02:15:41.083Z,99673.47
2018-04-23T02:18:42.538Z,99671.29
2018-04-23T02:21:44.062Z,99678.14
2018-04-23T02:24:45.604Z,99682.34
2018-04-23T02:27:47.070Z,99682.30
2018-04-23T02:30:48.555Z,99682.39
2018-04-23T02:33:50.085Z,99673.08
2018-04-23T02:36:51.565Z,99680.44
2018-04-23T02:39:53.146Z,99686.08
2018-04-23T02:42:54.625Z,99694.66
2018-04-23T02:45:56.098Z,99704.98
2018-04-23T02:48:57.616Z,99698.28
2018-04-23T02:51:59.174Z,99701.42
2018-04-23T02:55:02.075Z,99690.55
2018-04-23T03:01:14.077Z,99684.02
2018-04-23T03:04:16.314Z,99701.67
2018-04-23T03:07:18.584Z,99703.79
2018-04-23T03:10:20.052Z,99699.98
2018-04-23T03:13:22.278Z,99706.14
2018-04-23T03:16:23.763Z,99715.88
2018-04-23T03:19:25.228Z,99709.32
2018-04-23T03:22:27.446Z,99702.19
2018-04-23T03:25:29.046Z,99708.19
2018-04-23T03:28:30.538Z,99739.34
2018-04-23T03:31:33.352Z,99740.02
2018-04-23T03:34:34.887Z,99735.78
2018-04-23T03:37:36.360Z,99730.21
2018-04-23T03:40:37.807Z,99736.09
2018-04-23T03:43:39.261Z,99720.16
2018-04-23T03:46:40.793Z,99738.64
2018-04-23T03:49:42.357Z,99742.83
2018-04-23T03:52:43.812Z,99735.14
2018-04-23T03:55:45.354Z,99742.20
2018-04-23T03:58:47.563Z,99752.32
2018-04-23T04:01:49.034Z,99716.30
2018-04-23T04:04:50.496Z,99724.47
2018-04-23T04:07:51.963Z,99738.34
2018-04-23T04:10:53.446Z,99741.95
2018-04-23T04:14:13.334Z,99751.42
2018-04-23T04:17:14.791Z,99749.72
2018-04-23T04:20:16.984Z,99752.19
2018-04-23T04:23:18.466Z,99757.61
2018-04-23T04:26:19.961Z,99750.41
2018-04-23T04:29:22.983Z,99751.95
2018-04-23T04:32:24.557Z,99751.93
2018-04-23T04:35:26.765Z,99769.89
2018-04-23T04:38:28.178Z,99770.15
2018-04-23T04:41:29.723Z,99773.14
2018-04-23T04:44:31.196Z,99767.78
2018-04-23T04:47:32.675Z,99764.59
2018-04-23T04:50:34.147Z,99771.84
2018-04-23T04:53:35.655Z,99777.00
2018-04-23T04:56:39.722Z,99775.47
2018-04-23T04:59:41.967Z,99782.72
2018-04-23T05:02:44.036Z,99769.01
2018-04-23T05:05:47.195Z,99793.04
2018-04-23T05:08:49.439Z,99793.79
2018-04-23T05:11:52.216Z,99784.48
2018-04-23T05:14:53.680Z,99782.34
2018-04-23T05:17:55.191Z,99786.73
2018-04-23T05:20:56.630Z,99797.02
2018-04-23T05:23:59.044Z,99800.55
2018-04-23T05:27:05.000Z,99801.70
2018-04-23T05:30:06.755Z,99816.98
2018-04-23T05:33:08.231Z,99819.15
2018-04-23T05:36:09.714Z,99816.44
2018-04-23T05:39:11.171Z,99823.32
2018-04-23T05:42:12.719Z,99820.33
2018-04-23T05:45:14.234Z,99825.63
2018-04-23T05:48:15.786Z,99832.05
2018-04-23T05:51:17.351Z,99824.84
2018-04-23T05:54:18.788Z,99826.06
2018-04-23T05:57:21.008Z,99838.09
2018-04-23T06:00:22.523Z,99830.38
2018-04-23T06:03:24.866Z,99822.89
2018-04-23T06:06:26.383Z,99836.54
2018-04-23T06:09:27.977Z,99833.23
2018-04-23T06:12:29.417Z,99842.37
2018-04-23T06:15:31.565Z,99842.80
2018-04-23T06:18:33.016Z,99807.86
2018-04-23T06:21:34.491Z,99850.80
2018-04-23T06:24:35.969Z,99864.60
2018-04-23T06:27:37.535Z,99864.63
2018-04-23T06:30:38.945Z,99867.00
2018-04-23T06:33:41.362Z,99862.80
2018-04-23T06:36:42.810Z,99876.64
2018-04-23T06:39:45.071Z,99879.61
2018-04-23T06:42:46.494Z,99865.95
2018-04-23T06:45:48.010Z,99886.77
2018-04-23T06:48:49.534Z,99892.59
2018-04-23T06:51:51.082Z,99901.99
2018-04-23T06:54:52.615Z,99892.42
2018-04-23T06:57:54.085Z,99886.54
2018-04-23T07:00:55.506Z,99905.97
2018-04-23T07:03:57.038Z,99902.13
2018-04-23T07:06:59.203Z,99894.21
2018-04-23T07:10:00.625Z,99901.44
2018-04-23T07:13:02.055Z,99904.27
2018-04-23T07:16:04.261Z,99907.56
2018-04-23T07:19:05.769Z,99911.41
2018-04-23T07:22:07.243Z,99919.41
2018-04-23T07:25:08.740Z,99910.97
2018-04-23T07:28:10.179Z,99921.00
2018-04-23T07:31:11.631Z,99920.44
2018-04-23T07:34:13.098Z,99912.27
2018-04-23T07:37:14.596Z,99915.40
2018-04-23T07:40:16.141Z,99930.81
2018-04-23T07:43:17.636Z,99930.84
2018-04-23T07:46:19.190Z,99924.12
2018-04-23T07:49:20.659Z,99927.53
2018-04-23T07:52:22.121Z,99921.72
2018-04-23T07:55:23.598Z,99936.93
2018-04-23T07:58:25.093Z,99932.01
2018-04-23T08:01:27.413Z,99935.19
2018-04-23T08:04:28.840Z,99937.17
2018-04-23T08:07:30.421Z,99939.55
2018-04-23T08:10:32.609Z,99941.83
2018-04-23T08:13:34.845Z,99949.02
2018-04-23T08:16:36.340Z,99941.77
2018-04-23T08:19:37.818Z,99947.33
2018-04-23T08:22:39.218Z,99950.56
2018-04-23T08:25:40.681Z,99961.72
2018-04-23T08:28:42.186Z,99954.11
2018-04-23T08:31:43.641Z,99951.67
2018-04-23T08:34:45.083Z,99955.80
2018-04-23T08:37:47.134Z,99960.69
2018-04-23T08:40:48.585Z,99967.16
2018-04-23T08:43:50.082Z,99962.19
2018-04-23T08:46:51.547Z,99973.87
2018-04-23T08:49:53.032Z,99964.40
2018-04-23T08:52:55.256Z,99974.27
2018-04-23T08:55:56.694Z,99976.33
2018-04-23T08:58:58.144Z,99975.56
2018-04-23T09:02:00.324Z,99982.38
2018-04-23T09:05:01.782Z,99973.58
2018-04-23T09:08:03.308Z,99981.91
2018-04-23T09:11:04.769Z,99982.56
2018-04-23T09:14:06.237Z,99984.31
2018-04-23T09:17:07.620Z,99974.90
2018-04-23T09:20:09.042Z,99976.98
2018-04-23T09:23:11.250Z,99978.00
2018-04-23T09:26:12.691Z,99980.59
2018-04-23T09:29:15.142Z,99982.04
2018-04-23T09:32:16.668Z,99987.84
2018-04-23T09:35:18.271Z,99946.46
2018-04-23T09:38:19.813Z,99989.46
2018-04-23T09:41:22.444Z,99993.91
2018-04-23T09:44:24.759Z,100008.72
2018-04-23T09:47:26.237Z,100003.21
2018-04-23T09:50:27.773Z,100007.16
2018-04-23T09:53:29.351Z,100010.59
2018-04-23T09:56:30.889Z,100017.55
2018-04-23T09:59:32.545Z,100008.45
2018-04-23T10:02:33.979Z,100015.91
2018-04-23T10:05:35.483Z,100025.45
2018-04-23T10:08:36.907Z,100032.33
2018-04-23T10:11:40.569Z,100015.80
2018-04-23T10:14:42.299Z,100021.36
2018-04-23T10:17:44.786Z,100028.16
2018-04-23T10:20:46.999Z,100039.75
2018-04-23T10:23:48.557Z,100025.98
2018-04-23T10:26:50.097Z,100031.48
2018-04-23T10:29:51.587Z,100031.02
2018-04-23T10:32:53.145Z,100038.97
2018-04-23T10:35:54.855Z,100037.40
2018-04-23T10:38:57.104Z,100039.56
2018-04-23T10:41:58.639Z,100038.05
2018-04-23T10:45:01.029Z,100037.13
2018-04-23T10:48:03.323Z,100041.92
2018-04-23T10:51:05.403Z,100036.16
2018-04-23T10:54:06.920Z,100038.32
2018-04-23T10:57:10.197Z,100049.59
2018-04-23T11:00:11.733Z,100033.61
2018-04-23T11:03:16.456Z,100032.17
2018-04-23T11:06:18.479Z,100033.64
2018-04-23T11:09:21.051Z,100055.33
2018-04-23T11:12:23.096Z,100039.66
2018-04-23T11:15:25.466Z,100030.97
2018-04-23T11:18:26.928Z,100033.37
2018-04-23T11:21:29.067Z,100028.95
2018-04-23T11:24:31.489Z,100040.44
2018-04-23T11:27:33.121Z,100034.39
2018-04-23T11:30:35.555Z,100088.37
2018-04-23T11:33:37.098Z,100039.77
2018-04-23T11:36:39.525Z,100035.59
2018-04-23T11:42:50.229Z,100037.55
2018-04-23T11:45:52.246Z,100033.99
2018-04-23T11:48:54.893Z,100041.64
2018-04-23T11:51:57.389Z,100050.21
2018-04-23T11:54:58.865Z,100050.44
2018-04-23T11:58:00.460Z,100053.00
2018-04-23T12:01:02.535Z,100048.34
2018-04-23T12:04:04.137Z,100050.06
2018-04-23T12:07:06.132Z,100041.55
2018-04-23T12:10:08.787Z,100047.89
2018-04-23T12:13:10.329Z,100049.42
2018-04-23T12:16:12.008Z,100041.78
2018-04-23T12:19:14.041Z,100043.08
2018-04-23T12:22:16.331Z,100039.28
2018-04-23T12:25:19.167Z,100046.56
2018-04-23T12:28:20.695Z,100046.95
2018-04-23T12:31:22.163Z,100041.01
2018-04-23T12:34:23.802Z,100040.20
2018-04-23T12:37:25.344Z,100042.63
2018-04-23T12:40:26.780Z,100034.45
2018-04-23T12:43:28.358Z,100033.00
2018-04-23T12:46:30.611Z,100036.52
2018-04-23T12:49:32.098Z,100032.48
2018-04-23T12:52:33.499Z,100037.23
2018-04-23T12:55:35.597Z,100039.12
2018-04-23T12:58:37.074Z,100038.66
2018-04-23T13:01:38.506Z,100037.02
2018-04-23T13:04:40.688Z,100038.02
2018-04-23T13:07:42.806Z,100039.20
2018-04-23T13:10:44.254Z,100027.21
2018-04-23T13:13:46.572Z,100023.64
2018-04-23T13:16:48.063Z,100015.81
2018-04-23T13:19:49.634Z,100021.88
2018-04-23T13:22:51.122Z,100014.28
2018-04-23T13:25:52.571Z,100019.63
2018-04-23T13:28:54.040Z,100029.98
2018-04-23T13:31:55.481Z,100019.95
2018-04-23T13:34:56.836Z,100020.77
2018-04-23T13:37:58.225Z,100017.95
2018-04-23T13:40:59.623Z,100011.81
2018-04-23T13:44:01.028Z,100014.64
2018-04-23T13:47:02.537Z,100013.81
2018-04-23T13:50:04.036Z,99996.55
2018-04-23T13:53:05.485Z,100010.62
2018-04-23T13:56:06.904Z,100012.46
2018-04-23T13:59:08.304Z,100006.48
2018-04-23T14:02:09.737Z,100019.00
2018-04-23T14:05:11.174Z,100007.81
2018-04-23T14:08:13.360Z,100010.45
2018-04-23T14:11:15.477Z,100003.91
2018-04-23T14:14:16.907Z,100005.05
2018-04-23T14:17:19.122Z,100004.34
2018-04-23T14:20:20.565Z,100003.07
2018-04-23T14:23:22.723Z,100011.16
2018-04-23T14:26:24.163Z,100003.25
2018-04-23T14:29:25.574Z,100000.37
2018-04-23T14:32:26.995Z,99989.93
2018-04-23T14:35:28.477Z,99988.30
2018-04-23T14:38:29.904Z,99988.41
2018-04-23T14:41:31.277Z,99998.20
2018-04-23T14:44:32.648Z,100000.59
2018-04-23T14:47:34.185Z,99995.38
2018-04-23T14:50:35.586Z,99990.50
2018-04-23T14:53:37.046Z,99992.27
2018-04-23T14:56:38.444Z,99991.00
2018-04-23T14:59:39.847Z,99989.67
2018-04-23T15:02:42.561Z,99995.16
2018-04-23T15:05:44.224Z,100001.16
2018-04-23T15:08:45.735Z,99994.19
2018-04-23T15:11:47.170Z,99996.30
2018-04-23T15:14:49.372Z,100006.14
2018-04-23T15:17:50.839Z,100001.35
2018-04-23T15:20:52.256Z,100006.47
2018-04-23T15:23:53.691Z,99991.11
2018-04-23T15:26:55.290Z,100019.80
2018-04-23T15:29:56.697Z,100017.64
2018-04-23T15:32:58.924Z,100012.94
2018-04-23T15:36:00.461Z,100026.38
2018-04-23T15:39:02.002Z,100020.55
2018-04-23T15:42:04.096Z,100016.31
2018-04-23T15:45:06.358Z,100030.10
2018-04-23T15:48:07.785Z,100035.09
2018-04-23T15:51:09.305Z,100028.09
2018-04-23T15:54:11.472Z,100033.31
2018-04-23T15:57:12.913Z,100036.45
2018-04-23T16:00:15.137Z,100038.61
2018-04-23T16:03:16.613Z,100022.12
2018-04-23T16:06:18.102Z,100031.80
2018-04-23T16:09:20.198Z,100031.86
2018-04-23T16:12:21.678Z,100030.05
2018-04-23T16:15:23.118Z,100039.17
2018-04-23T16:18:25.320Z,100042.01
2018-04-23T16:21:26.679Z,100045.13
2018-04-23T16:24:28.108Z,100028.39
2018-04-23T16:27:29.582Z,100042.03
2018-04-23T16:30:30.982Z,100041.70
2018-04-23T16:33:33.139Z,100046.27
2018-04-23T16:36:34.596Z,100033.83
2018-04-23T16:39:36.077Z,100043.73
2018-04-23T16:42:38.352Z,100046.38
2018-04-23T16:45:39.748Z,100049.50
2018-04-23T16:48:41.879Z,100060.05
2018-04-23T16:51:43.310Z,100052.69
2018-04-23T16:54:44.748Z,100046.61
2018-04-23T16:57:46.148Z,100052.89
2018-04-23T17:00:48.852Z,100057.48
2018-04-23T17:03:50.331Z,100043.33
2018-04-23T17:06:51.782Z,100064.10
2018-04-23T17:09:53.212Z,100050.37
2018-04-23T17:12:54.652Z,100051.14
2018-04-23T17:15:56.089Z,100061.81
2018-04-23T17:18:57.496Z,100054.43
2018-04-23T17:21:59.097Z,100064.07
2018-04-23T17:25:01.359Z,100057.58
2018-04-23T17:28:02.752Z,100054.17
2018-04-23T17:31:05.013Z,100065.74
2018-04-23T17:34:06.459Z,100064.81
2018-04-23T17:37:07.947Z,100062.48
2018-04-23T17:40:09.560Z,100061.86
2018-04-23T17:43:13.214Z,100058.05
2018-04-23T17:46:14.647Z,100067.22
2018-04-23T17:49:16.122Z,100061.82
2018-04-23T17:52:18.377Z,100069.70
2018-04-23T17:55:20.410Z,100068.38
2018-04-23T17:58:22.601Z,100064.94
2018-04-23T18:01:24.044Z,100068.23
2018-04-23T18:04:27.025Z,100065.89
2018-04-23T18:07:28.451Z,100069.84
2018-04-23T18:10:30.242Z,100064.59
2018-04-23T18:13:32.300Z,100061.56
2018-04-23T18:16:34.925Z,100072.84
2018-04-23T18:19:36.405Z,100063.73
2018-04-23T18:22:38.156Z,100067.33
2018-04-23T18:25:40.014Z,100068.18
2018-04-23T18:28:41.918Z,100074.11
2018-04-23T18:31:43.916Z,100072.53
2018-04-23T18:34:46.690Z,100075.98
2018-04-23T18:37:48.192Z,100073.86
2018-04-23T18:40:50.605Z,100076.81
2018-04-23T18:43:52.241Z,100080.22
2018-04-23T18:46:53.718Z,100089.36
2018-04-23T18:49:55.137Z,100078.67
2018-04-23T18:52:56.576Z,100089.92
2018-04-23T18:55:58.046Z,100085.84
2018-04-23T18:59:01.560Z,100085.17
2018-04-23T19:02:04.131Z,100083.09
2018-04-23T19:05:06.169Z,100088.95
2018-04-23T19:08:07.701Z,100096.58
2018-04-23T19:11:09.166Z,100099.66
2018-04-23T19:14:11.193Z,100107.20
2018-04-23T19:17:12.769Z,100100.67
2018-04-23T19:20:15.322Z,100090.47
2018-04-23T19:23:17.160Z,100107.97
2018-04-23T19:26:19.436Z,100116.48
2018-04-23T19:29:21.055Z,100116.58
2018-04-23T19:32:23.261Z,100121.77
2018-04-23T19:35:25.375Z,100128.49
2018-04-23T19:38:27.237Z,100131.43
2018-04-23T19:41:28.701Z,100128.81
2018-04-23T19:44:30.155Z,100135.50
2018-04-23T19:47:31.551Z,100130.53
2018-04-23T19:50:33.492Z,100137.25
2018-04-23T19:53:34.899Z,100141.56
2018-04-23T19:56:36.766Z,100140.69
2018-04-23T19:59:38.630Z,100147.64
2018-04-23T20:02:40.801Z,100145.95
2018-04-23T20:05:42.808Z,100141.77
2018-04-23T20:08:44.287Z,100149.56
2018-04-23T20:11:46.172Z,100129.31
2018-04-23T20:14:47.632Z,100132.91
2018-04-23T20:17:49.757Z,100140.70
2018-04-23T20:20:52.314Z,100129.94
2018-04-23T20:23:53.740Z,100131.64
2018-04-23T20:26:55.142Z,100133.14
2018-04-23T20:29:56.586Z,100130.84
2018-04-23T20:32:58.694Z,100135.19
2018-04-23T20:36:17.460Z,100140.38
2018-04-23T20:39:18.928Z,100147.99
2018-04-23T20:42:20.469Z,100141.17
2018-04-23T20:45:22.749Z,100131.47
2018-04-23T20:48:24.476Z,100134.56
2018-04-23T20:51:26.187Z,100131.70
2018-04-23T20:57:37.226Z,100136.34
2018-04-23T21:00:39.551Z,100138.63
2018-04-23T21:03:41.171Z,100141.03
2018-04-23T21:06:43.566Z,100128.13
2018-04-23T21:09:45.238Z,100136.72
2018-04-23T21:12:53.688Z,100144.64
2018-04-23T21:15:56.189Z,100146.18
2018-04-23T21:18:58.521Z,100141.25
2018-04-23T21:22:03.876Z,100139.84
2018-04-23T21:25:05.463Z,100142.14
2018-04-23T21:28:07.249Z,100133.45
2018-04-23T21:31:09.133Z,100137.62
2018-04-23T21:34:10.816Z,100128.39
2018-04-23T21:37:13.098Z,100129.64
2018-04-23T21:40:15.212Z,100107.96
2018-04-23T21:43:16.967Z,100136.05
2018-04-23T21:46:18.539Z,100135.12
2018-04-23T21:49:20.829Z,100130.09
2018-04-23T21:52:23.131Z,100129.69
2018-04-23T21:55:24.688Z,100132.37
2018-04-23T21:58:26.428Z,100143.33
2018-04-23T22:01:28.888Z,100143.08
2018-04-23T22:04:30.433Z,100150.71
2018-04-23T22:07:32.039Z,100142.80
2018-04-23T22:10:33.507Z,100139.66
2018-04-23T22:13:36.912Z,100149.14
2018-04-23T22:16:38.545Z,100140.94
2018-04-23T22:19:40.947Z,100153.64
2018-04-23T22:22:42.524Z,100151.58
2018-04-23T22:25:45.268Z,100159.76
2018-04-23T22:28:48.540Z,100150.99
2018-04-23T22:31:51.040Z,100154.07
2018-04-23T22:34:54.038Z,100154.47
2018-04-23T22:37:55.669Z,100156.36
2018-04-23T22:40:58.015Z,100153.84
2018-04-23T22:43:59.549Z,100156.55
2018-04-23T22:47:01.153Z,100161.36
2018-04-23T22:50:02.806Z,100160.88
2018-04-23T22:53:04.379Z,100165.03
2018-04-23T22:56:05.954Z,100159.81
2018-04-23T22:59:07.480Z,100159.35
2018-04-23T23:02:08.974Z,100162.45
2018-04-23T23:05:12.090Z,100158.69
2018-04-23T23:08:14.450Z,100161.53
2018-04-23T23:11:16.009Z,100158.53
2018-04-23T23:14:18.853Z,100177.12
2018-04-23T23:17:20.622Z,100179.83
2018-04-23T23:20:22.861Z,100185.86
2018-04-23T23:23:24.346Z,100185.50
2018-04-23T23:26:27.497Z,100184.29
2018-04-23T23:29:29.981Z,100179.87
2018-04-23T23:32:31.567Z,100185.82
2018-04-23T23:35:33.116Z,100171.69
2018-04-23T23:38:34.718Z,100169.84
2018-04-23T23:44:44.729Z,100147.53
2018-04-23T23:47:46.298Z,100160.28
2018-04-23T23:50:47.991Z,100160.03
2018-04-23T23:53:50.392Z,100160.25
2018-04-23T23:56:52.734Z,100161.44
2018-04-23T23:59:55.249Z,100155.44
